sensor_id;sensor_type;location;lat;lon;timestamp;P1;durP1;ratioP1;P2;durP2;ratioP2
69083;SDS011;56185;48.526;9.044;2022-11-15T00:00:43;8.70;;;5.57;;
69083;SDS011;56185;48.526;9.044;2022-11-15T00:03:08;6.82;;;5.05;;
69083;SDS011;56185;48.526;9.044;2022-11-15T00:05:39;9.82;;;5.38;;
69083;SDS011;56185;48.526;9.044;2022-11-15T00:08:04;7.93;;;5.45;;
69083;SDS011;56185;48.526;9.044;2022-11-15T00:10:30;9.07;;;5.20;;
69083;SDS011;56185;48.526;9.044;2022-11-15T00:12:55;9.25;;;4.93;;
69083;SDS011;56185;48.526;9.044;2022-11-15T00:15:20;8.67;;;5.13;;
69083;SDS011;56185;48.526;9.044;2022-11-15T00:17:48;7.00;;;4.82;;
69083;SDS011;56185;48.526;9.044;2022-11-15T00:20:14;8.32;;;5.43;;
69083;SDS011;56185;48.526;9.044;2022-11-15T00:22:39;8.57;;;5.22;;
69083;SDS011;56185;48.526;9.044;2022-11-15T00:25:05;8.03;;;5.00;;
69083;SDS011;56185;48.526;9.044;2022-11-15T00:27:30;7.57;;;4.90;;
69083;SDS011;56185;48.526;9.044;2022-11-15T00:29:55;7.68;;;4.85;;
69083;SDS011;56185;48.526;9.044;2022-11-15T00:32:21;6.47;;;4.72;;
69083;SDS011;56185;48.526;9.044;2022-11-15T00:34:46;10.30;;;5.03;;
69083;SDS011;56185;48.526;9.044;2022-11-15T00:37:11;6.47;;;4.82;;
69083;SDS011;56185;48.526;9.044;2022-11-15T00:39:36;9.93;;;5.00;;
69083;SDS011;56185;48.526;9.044;2022-11-15T00:42:02;7.30;;;5.18;;
69083;SDS011;56185;48.526;9.044;2022-11-15T00:44:27;7.60;;;4.88;;
69083;SDS011;56185;48.526;9.044;2022-11-15T00:46:52;9.60;;;5.03;;
69083;SDS011;56185;48.526;9.044;2022-11-15T00:52:03;7.57;;;4.72;;
69083;SDS011;56185;48.526;9.044;2022-11-15T00:54:28;8.07;;;5.07;;
69083;SDS011;56185;48.526;9.044;2022-11-15T00:56:54;7.50;;;5.23;;
69083;SDS011;56185;48.526;9.044;2022-11-15T00:59:19;7.80;;;4.73;;
69083;SDS011;56185;48.526;9.044;2022-11-15T01:01:44;8.43;;;5.00;;
69083;SDS011;56185;48.526;9.044;2022-11-15T01:04:09;8.15;;;4.53;;
69083;SDS011;56185;48.526;9.044;2022-11-15T01:06:35;5.95;;;4.10;;
69083;SDS011;56185;48.526;9.044;2022-11-15T01:09:00;7.18;;;3.97;;
69083;SDS011;56185;48.526;9.044;2022-11-15T01:11:25;5.83;;;4.40;;
69083;SDS011;56185;48.526;9.044;2022-11-15T01:13:50;6.10;;;4.23;;
69083;SDS011;56185;48.526;9.044;2022-11-15T01:16:16;6.03;;;3.77;;
69083;SDS011;56185;48.526;9.044;2022-11-15T01:18:44;6.72;;;3.85;;
69083;SDS011;56185;48.526;9.044;2022-11-15T01:21:11;6.63;;;4.35;;
69083;SDS011;56185;48.526;9.044;2022-11-15T01:23:38;7.38;;;4.10;;
69083;SDS011;56185;48.526;9.044;2022-11-15T01:26:05;5.53;;;4.13;;
69083;SDS011;56185;48.526;9.044;2022-11-15T01:28:32;5.43;;;4.05;;
69083;SDS011;56185;48.526;9.044;2022-11-15T01:31:02;8.50;;;4.75;;
69083;SDS011;56185;48.526;9.044;2022-11-15T01:33:29;9.10;;;5.20;;
69083;SDS011;56185;48.526;9.044;2022-11-15T01:35:55;6.45;;;4.72;;
69083;SDS011;56185;48.526;9.044;2022-11-15T01:38:21;7.80;;;4.90;;
69083;SDS011;56185;48.526;9.044;2022-11-15T01:40:47;8.43;;;5.47;;
69083;SDS011;56185;48.526;9.044;2022-11-15T01:43:23;12.98;;;4.57;;
69083;SDS011;56185;48.526;9.044;2022-11-15T01:48:34;7.22;;;4.35;;
69083;SDS011;56185;48.526;9.044;2022-11-15T01:51:00;9.05;;;4.80;;
69083;SDS011;56185;48.526;9.044;2022-11-15T01:53:29;8.02;;;4.75;;
69083;SDS011;56185;48.526;9.044;2022-11-15T01:55:57;8.57;;;4.88;;
69083;SDS011;56185;48.526;9.044;2022-11-15T01:58:23;9.85;;;5.32;;
69083;SDS011;56185;48.526;9.044;2022-11-15T02:00:48;6.32;;;4.43;;
69083;SDS011;56185;48.526;9.044;2022-11-15T02:03:15;9.05;;;4.63;;
69083;SDS011;56185;48.526;9.044;2022-11-15T02:05:40;8.80;;;4.60;;
69083;SDS011;56185;48.526;9.044;2022-11-15T02:08:06;8.05;;;5.28;;
69083;SDS011;56185;48.526;9.044;2022-11-15T02:10:33;5.93;;;4.43;;
69083;SDS011;56185;48.526;9.044;2022-11-15T02:12:58;7.25;;;4.60;;
69083;SDS011;56185;48.526;9.044;2022-11-15T02:15:26;7.53;;;4.78;;
69083;SDS011;56185;48.526;9.044;2022-11-15T02:18:23;8.85;;;5.18;;
69083;SDS011;56185;48.526;9.044;2022-11-15T02:20:52;7.57;;;4.60;;
69083;SDS011;56185;48.526;9.044;2022-11-15T02:32:11;8.15;;;5.13;;
69083;SDS011;56185;48.526;9.044;2022-11-15T02:34:54;8.38;;;5.63;;
69083;SDS011;56185;48.526;9.044;2022-11-15T02:42:57;7.53;;;5.05;;
69083;SDS011;56185;48.526;9.044;2022-11-15T02:45:36;7.70;;;5.50;;
69083;SDS011;56185;48.526;9.044;2022-11-15T02:48:07;8.40;;;5.65;;
69083;SDS011;56185;48.526;9.044;2022-11-15T02:50:34;8.57;;;5.32;;
69083;SDS011;56185;48.526;9.044;2022-11-15T02:53:00;9.20;;;5.28;;
69083;SDS011;56185;48.526;9.044;2022-11-15T02:55:26;9.57;;;5.32;;
69083;SDS011;56185;48.526;9.044;2022-11-15T03:00:46;6.55;;;4.95;;
69083;SDS011;56185;48.526;9.044;2022-11-15T03:03:29;8.00;;;4.50;;
69083;SDS011;56185;48.526;9.044;2022-11-15T03:06:09;8.23;;;4.88;;
69083;SDS011;56185;48.526;9.044;2022-11-15T03:11:18;8.38;;;4.97;;
69083;SDS011;56185;48.526;9.044;2022-11-15T03:19:35;8.10;;;4.90;;
69083;SDS011;56185;48.526;9.044;2022-11-15T03:21:34;7.93;;;4.97;;
69083;SDS011;56185;48.526;9.044;2022-11-15T03:24:02;11.52;;;5.45;;
69083;SDS011;56185;48.526;9.044;2022-11-15T03:26:30;10.52;;;5.22;;
69083;SDS011;56185;48.526;9.044;2022-11-15T03:29:10;7.80;;;4.72;;
69083;SDS011;56185;48.526;9.044;2022-11-15T03:31:40;9.68;;;5.40;;
69083;SDS011;56185;48.526;9.044;2022-11-15T03:34:10;9.07;;;5.47;;
69083;SDS011;56185;48.526;9.044;2022-11-15T03:36:53;8.18;;;4.70;;
69083;SDS011;56185;48.526;9.044;2022-11-15T03:39:19;7.22;;;5.00;;
69083;SDS011;56185;48.526;9.044;2022-11-15T03:41:47;7.80;;;5.10;;
69083;SDS011;56185;48.526;9.044;2022-11-15T03:47:12;7.72;;;5.47;;
69083;SDS011;56185;48.526;9.044;2022-11-15T03:49:40;9.70;;;5.20;;
69083;SDS011;56185;48.526;9.044;2022-11-15T03:52:09;6.90;;;5.20;;
69083;SDS011;56185;48.526;9.044;2022-11-15T03:54:35;8.63;;;5.20;;
69083;SDS011;56185;48.526;9.044;2022-11-15T03:57:01;8.13;;;5.18;;
69083;SDS011;56185;48.526;9.044;2022-11-15T03:59:26;6.97;;;4.43;;
69083;SDS011;56185;48.526;9.044;2022-11-15T04:01:51;8.15;;;5.05;;
69083;SDS011;56185;48.526;9.044;2022-11-15T04:04:17;7.85;;;4.70;;
69083;SDS011;56185;48.526;9.044;2022-11-15T04:06:42;7.75;;;4.65;;
69083;SDS011;56185;48.526;9.044;2022-11-15T04:09:13;9.30;;;4.97;;
69083;SDS011;56185;48.526;9.044;2022-11-15T04:11:38;7.87;;;5.07;;
69083;SDS011;56185;48.526;9.044;2022-11-15T04:14:03;8.38;;;5.25;;
69083;SDS011;56185;48.526;9.044;2022-11-15T04:16:29;10.85;;;5.65;;
69083;SDS011;56185;48.526;9.044;2022-11-15T04:18:54;6.85;;;4.88;;
69083;SDS011;56185;48.526;9.044;2022-11-15T04:21:20;9.95;;;5.50;;
69083;SDS011;56185;48.526;9.044;2022-11-15T04:23:45;9.02;;;5.35;;
69083;SDS011;56185;48.526;9.044;2022-11-15T04:26:11;7.17;;;4.83;;
69083;SDS011;56185;48.526;9.044;2022-11-15T04:28:39;7.22;;;4.90;;
69083;SDS011;56185;48.526;9.044;2022-11-15T04:31:04;8.77;;;5.05;;
69083;SDS011;56185;48.526;9.044;2022-11-15T04:33:29;9.25;;;5.35;;
69083;SDS011;56185;48.526;9.044;2022-11-15T04:35:55;7.57;;;4.80;;
69083;SDS011;56185;48.526;9.044;2022-11-15T04:38:20;9.00;;;5.25;;
69083;SDS011;56185;48.526;9.044;2022-11-15T04:40:45;7.67;;;5.07;;
69083;SDS011;56185;48.526;9.044;2022-11-15T04:43:11;9.75;;;5.78;;
69083;SDS011;56185;48.526;9.044;2022-11-15T04:45:36;7.53;;;4.83;;
69083;SDS011;56185;48.526;9.044;2022-11-15T04:48:01;5.90;;;4.68;;
69083;SDS011;56185;48.526;9.044;2022-11-15T04:50:27;6.63;;;4.85;;
69083;SDS011;56185;48.526;9.044;2022-11-15T04:52:52;7.85;;;4.70;;
69083;SDS011;56185;48.526;9.044;2022-11-15T04:55:22;6.38;;;4.60;;
69083;SDS011;56185;48.526;9.044;2022-11-15T04:57:47;8.38;;;4.72;;
69083;SDS011;56185;48.526;9.044;2022-11-15T05:00:14;9.38;;;5.80;;
69083;SDS011;56185;48.526;9.044;2022-11-15T05:02:40;8.98;;;5.18;;
69083;SDS011;56185;48.526;9.044;2022-11-15T05:05:06;8.55;;;5.55;;
69083;SDS011;56185;48.526;9.044;2022-11-15T05:07:31;6.65;;;4.95;;
69083;SDS011;56185;48.526;9.044;2022-11-15T05:09:57;9.20;;;5.50;;
69083;SDS011;56185;48.526;9.044;2022-11-15T05:12:22;8.53;;;5.03;;
69083;SDS011;56185;48.526;9.044;2022-11-15T05:14:47;7.85;;;4.95;;
69083;SDS011;56185;48.526;9.044;2022-11-15T05:17:12;8.57;;;5.63;;
69083;SDS011;56185;48.526;9.044;2022-11-15T05:19:38;8.35;;;5.68;;
69083;SDS011;56185;48.526;9.044;2022-11-15T05:22:03;9.48;;;6.00;;
69083;SDS011;56185;48.526;9.044;2022-11-15T05:24:28;7.95;;;5.90;;
69083;SDS011;56185;48.526;9.044;2022-11-15T05:26:53;9.03;;;5.97;;
69083;SDS011;56185;48.526;9.044;2022-11-15T05:29:18;9.05;;;5.82;;
69083;SDS011;56185;48.526;9.044;2022-11-15T05:31:44;8.07;;;5.57;;
69083;SDS011;56185;48.526;9.044;2022-11-15T05:34:09;7.68;;;5.80;;
69083;SDS011;56185;48.526;9.044;2022-11-15T05:36:38;9.00;;;5.70;;
69083;SDS011;56185;48.526;9.044;2022-11-15T05:39:06;8.88;;;6.47;;
69083;SDS011;56185;48.526;9.044;2022-11-15T05:41:34;7.85;;;6.00;;
69083;SDS011;56185;48.526;9.044;2022-11-15T05:44:00;9.50;;;5.75;;
69083;SDS011;56185;48.526;9.044;2022-11-15T05:46:27;9.73;;;6.18;;
69083;SDS011;56185;48.526;9.044;2022-11-15T05:48:53;8.05;;;5.68;;
69083;SDS011;56185;48.526;9.044;2022-11-15T05:51:21;7.22;;;4.93;;
69083;SDS011;56185;48.526;9.044;2022-11-15T05:53:47;6.93;;;4.78;;
69083;SDS011;56185;48.526;9.044;2022-11-15T05:56:13;8.73;;;4.93;;
69083;SDS011;56185;48.526;9.044;2022-11-15T05:58:39;11.18;;;4.95;;
69083;SDS011;56185;48.526;9.044;2022-11-15T06:01:04;7.35;;;4.97;;
69083;SDS011;56185;48.526;9.044;2022-11-15T06:03:30;7.50;;;5.05;;
69083;SDS011;56185;48.526;9.044;2022-11-15T06:05:56;7.43;;;4.68;;
69083;SDS011;56185;48.526;9.044;2022-11-15T06:08:21;5.95;;;4.68;;
69083;SDS011;56185;48.526;9.044;2022-11-15T06:10:46;7.15;;;4.93;;
69083;SDS011;56185;48.526;9.044;2022-11-15T06:13:12;8.75;;;5.20;;
69083;SDS011;56185;48.526;9.044;2022-11-15T06:15:37;9.32;;;5.80;;
69083;SDS011;56185;48.526;9.044;2022-11-15T06:18:02;8.53;;;5.63;;
69083;SDS011;56185;48.526;9.044;2022-11-15T06:20:28;10.48;;;5.70;;
69083;SDS011;56185;48.526;9.044;2022-11-15T06:23:01;8.93;;;6.10;;
69083;SDS011;56185;48.526;9.044;2022-11-15T06:25:28;8.43;;;5.90;;
69083;SDS011;56185;48.526;9.044;2022-11-15T06:27:54;8.13;;;5.95;;
69083;SDS011;56185;48.526;9.044;2022-11-15T06:30:21;9.73;;;5.93;;
69083;SDS011;56185;48.526;9.044;2022-11-15T06:32:47;10.82;;;6.50;;
69083;SDS011;56185;48.526;9.044;2022-11-15T06:35:13;10.10;;;6.80;;
69083;SDS011;56185;48.526;9.044;2022-11-15T06:37:39;9.93;;;6.25;;
69083;SDS011;56185;48.526;9.044;2022-11-15T06:40:04;8.30;;;6.10;;
69083;SDS011;56185;48.526;9.044;2022-11-15T06:42:30;9.20;;;6.57;;
69083;SDS011;56185;48.526;9.044;2022-11-15T06:44:55;10.47;;;6.60;;
69083;SDS011;56185;48.526;9.044;2022-11-15T06:47:20;10.83;;;6.70;;
69083;SDS011;56185;48.526;9.044;2022-11-15T06:49:46;9.07;;;6.03;;
69083;SDS011;56185;48.526;9.044;2022-11-15T06:52:11;9.57;;;6.53;;
69083;SDS011;56185;48.526;9.044;2022-11-15T06:54:36;9.43;;;6.03;;
69083;SDS011;56185;48.526;9.044;2022-11-15T06:57:01;8.50;;;6.57;;
69083;SDS011;56185;48.526;9.044;2022-11-15T06:59:29;9.57;;;6.32;;
69083;SDS011;56185;48.526;9.044;2022-11-15T07:01:54;8.50;;;5.32;;
69083;SDS011;56185;48.526;9.044;2022-11-15T07:04:19;10.48;;;6.38;;
69083;SDS011;56185;48.526;9.044;2022-11-15T07:06:48;11.73;;;7.73;;
69083;SDS011;56185;48.526;9.044;2022-11-15T07:09:13;9.73;;;7.18;;
69083;SDS011;56185;48.526;9.044;2022-11-15T07:11:39;12.45;;;8.25;;
69083;SDS011;56185;48.526;9.044;2022-11-15T07:14:04;10.73;;;7.18;;
69083;SDS011;56185;48.526;9.044;2022-11-15T07:16:29;13.00;;;7.53;;
69083;SDS011;56185;48.526;9.044;2022-11-15T07:18:55;11.40;;;7.78;;
69083;SDS011;56185;48.526;9.044;2022-11-15T07:21:20;12.18;;;7.95;;
69083;SDS011;56185;48.526;9.044;2022-11-15T07:23:45;14.73;;;7.80;;
69083;SDS011;56185;48.526;9.044;2022-11-15T07:26:11;10.30;;;7.43;;
69083;SDS011;56185;48.526;9.044;2022-11-15T07:28:36;12.52;;;7.75;;
69083;SDS011;56185;48.526;9.044;2022-11-15T07:31:05;13.40;;;7.95;;
69083;SDS011;56185;48.526;9.044;2022-11-15T07:33:31;9.73;;;6.93;;
69083;SDS011;56185;48.526;9.044;2022-11-15T07:36:04;15.23;;;7.22;;
69083;SDS011;56185;48.526;9.044;2022-11-15T07:38:30;11.20;;;7.18;;
69083;SDS011;56185;48.526;9.044;2022-11-15T07:40:57;8.02;;;5.90;;
69083;SDS011;56185;48.526;9.044;2022-11-15T07:43:23;10.63;;;6.20;;
69083;SDS011;56185;48.526;9.044;2022-11-15T07:45:49;10.55;;;6.38;;
69083;SDS011;56185;48.526;9.044;2022-11-15T07:48:14;8.95;;;6.07;;
69083;SDS011;56185;48.526;9.044;2022-11-15T07:50:42;10.27;;;6.43;;
69083;SDS011;56185;48.526;9.044;2022-11-15T07:53:08;9.50;;;6.80;;
69083;SDS011;56185;48.526;9.044;2022-11-15T07:55:34;10.00;;;6.50;;
69083;SDS011;56185;48.526;9.044;2022-11-15T07:58:03;8.82;;;6.15;;
69083;SDS011;56185;48.526;9.044;2022-11-15T08:00:33;9.38;;;6.05;;
69083;SDS011;56185;48.526;9.044;2022-11-15T08:03:03;11.23;;;6.13;;
69083;SDS011;56185;48.526;9.044;2022-11-15T08:05:29;9.32;;;6.28;;
69083;SDS011;56185;48.526;9.044;2022-11-15T08:07:55;9.38;;;6.60;;
69083;SDS011;56185;48.526;9.044;2022-11-15T08:10:20;10.13;;;6.50;;
69083;SDS011;56185;48.526;9.044;2022-11-15T08:12:46;9.10;;;6.50;;
69083;SDS011;56185;48.526;9.044;2022-11-15T08:15:11;10.63;;;6.20;;
69083;SDS011;56185;48.526;9.044;2022-11-15T08:17:36;8.63;;;6.20;;
69083;SDS011;56185;48.526;9.044;2022-11-15T08:20:02;8.43;;;6.27;;
69083;SDS011;56185;48.526;9.044;2022-11-15T08:22:27;9.48;;;6.82;;
69083;SDS011;56185;48.526;9.044;2022-11-15T08:24:52;10.23;;;6.73;;
69083;SDS011;56185;48.526;9.044;2022-11-15T08:27:17;12.43;;;6.13;;
69083;SDS011;56185;48.526;9.044;2022-11-15T08:29:43;12.18;;;6.78;;
69083;SDS011;56185;48.526;9.044;2022-11-15T08:32:09;8.25;;;5.88;;
69083;SDS011;56185;48.526;9.044;2022-11-15T08:34:35;8.35;;;5.97;;
69083;SDS011;56185;48.526;9.044;2022-11-15T08:37:00;7.05;;;5.50;;
69083;SDS011;56185;48.526;9.044;2022-11-15T08:39:26;7.20;;;5.73;;
69083;SDS011;56185;48.526;9.044;2022-11-15T08:41:51;8.03;;;6.17;;
69083;SDS011;56185;48.526;9.044;2022-11-15T08:44:16;7.65;;;6.25;;
69083;SDS011;56185;48.526;9.044;2022-11-15T08:46:41;7.27;;;5.93;;
69083;SDS011;56185;48.526;9.044;2022-11-15T08:49:06;9.20;;;6.10;;
69083;SDS011;56185;48.526;9.044;2022-11-15T08:51:32;7.30;;;5.97;;
69083;SDS011;56185;48.526;9.044;2022-11-15T08:53:57;7.63;;;5.77;;
69083;SDS011;56185;48.526;9.044;2022-11-15T08:56:22;8.55;;;5.82;;
69083;SDS011;56185;48.526;9.044;2022-11-15T08:58:48;8.38;;;6.45;;
69083;SDS011;56185;48.526;9.044;2022-11-15T09:01:20;8.10;;;6.13;;
69083;SDS011;56185;48.526;9.044;2022-11-15T09:03:45;10.45;;;6.30;;
69083;SDS011;56185;48.526;9.044;2022-11-15T09:06:11;11.33;;;6.23;;
69083;SDS011;56185;48.526;9.044;2022-11-15T09:08:36;11.20;;;6.60;;
69083;SDS011;56185;48.526;9.044;2022-11-15T09:11:05;9.00;;;6.20;;
69083;SDS011;56185;48.526;9.044;2022-11-15T09:13:32;13.27;;;6.82;;
69083;SDS011;56185;48.526;9.044;2022-11-15T09:15:58;13.57;;;6.60;;
69083;SDS011;56185;48.526;9.044;2022-11-15T09:18:24;10.20;;;7.03;;
69083;SDS011;56185;48.526;9.044;2022-11-15T09:20:50;13.27;;;7.38;;
69083;SDS011;56185;48.526;9.044;2022-11-15T09:23:15;12.33;;;7.53;;
69083;SDS011;56185;48.526;9.044;2022-11-15T09:25:40;11.27;;;7.50;;
69083;SDS011;56185;48.526;9.044;2022-11-15T09:28:06;9.37;;;6.20;;
69083;SDS011;56185;48.526;9.044;2022-11-15T09:30:32;11.07;;;6.70;;
69083;SDS011;56185;48.526;9.044;2022-11-15T09:32:57;9.87;;;6.73;;
69083;SDS011;56185;48.526;9.044;2022-11-15T09:35:22;10.70;;;6.67;;
69083;SDS011;56185;48.526;9.044;2022-11-15T09:37:47;8.23;;;6.43;;
69083;SDS011;56185;48.526;9.044;2022-11-15T09:40:13;10.85;;;6.78;;
69083;SDS011;56185;48.526;9.044;2022-11-15T09:46:04;11.40;;;6.18;;
69083;SDS011;56185;48.526;9.044;2022-11-15T09:48:50;8.70;;;6.30;;
69083;SDS011;56185;48.526;9.044;2022-11-15T09:51:24;10.10;;;6.30;;
69083;SDS011;56185;48.526;9.044;2022-11-15T09:56:34;8.77;;;6.72;;
69083;SDS011;56185;48.526;9.044;2022-11-15T10:01:47;10.43;;;6.75;;
69083;SDS011;56185;48.526;9.044;2022-11-15T10:04:20;11.23;;;7.45;;
69083;SDS011;56185;48.526;9.044;2022-11-15T10:07:30;9.30;;;6.43;;
69083;SDS011;56185;48.526;9.044;2022-11-15T10:12:33;9.20;;;6.38;;
69083;SDS011;56185;48.526;9.044;2022-11-15T10:15:06;11.18;;;6.65;;
69083;SDS011;56185;48.526;9.044;2022-11-15T10:20:37;10.68;;;7.05;;
69083;SDS011;56185;48.526;9.044;2022-11-15T10:23:10;12.43;;;7.55;;
69083;SDS011;56185;48.526;9.044;2022-11-15T10:25:38;12.68;;;7.60;;
69083;SDS011;56185;48.526;9.044;2022-11-15T10:30:39;11.02;;;6.93;;
69083;SDS011;56185;48.526;9.044;2022-11-15T10:33:16;10.40;;;7.00;;
69083;SDS011;56185;48.526;9.044;2022-11-15T10:41:12;11.40;;;6.72;;
69083;SDS011;56185;48.526;9.044;2022-11-15T10:43:38;9.15;;;6.38;;
69083;SDS011;56185;48.526;9.044;2022-11-15T10:46:19;10.90;;;6.43;;
69083;SDS011;56185;48.526;9.044;2022-11-15T10:48:47;9.75;;;6.43;;
69083;SDS011;56185;48.526;9.044;2022-11-15T10:51:26;9.00;;;6.53;;
69083;SDS011;56185;48.526;9.044;2022-11-15T10:53:52;9.77;;;6.35;;
69083;SDS011;56185;48.526;9.044;2022-11-15T10:56:19;13.25;;;7.60;;
69083;SDS011;56185;48.526;9.044;2022-11-15T10:58:51;9.85;;;6.43;;
69083;SDS011;56185;48.526;9.044;2022-11-15T11:01:20;12.75;;;6.75;;
69083;SDS011;56185;48.526;9.044;2022-11-15T11:03:58;10.48;;;6.70;;
69083;SDS011;56185;48.526;9.044;2022-11-15T11:06:47;11.35;;;6.90;;
69083;SDS011;56185;48.526;9.044;2022-11-15T11:09:35;8.15;;;6.20;;
69083;SDS011;56185;48.526;9.044;2022-11-15T11:12:03;9.23;;;5.10;;
69083;SDS011;56185;48.526;9.044;2022-11-15T11:14:31;7.45;;;5.18;;
69083;SDS011;56185;48.526;9.044;2022-11-15T11:19:43;8.82;;;5.28;;
69083;SDS011;56185;48.526;9.044;2022-11-15T11:22:22;7.38;;;5.05;;
69083;SDS011;56185;48.526;9.044;2022-11-15T11:27:45;10.43;;;5.50;;
69083;SDS011;56185;48.526;9.044;2022-11-15T11:30:42;7.20;;;4.70;;
69083;SDS011;56185;48.526;9.044;2022-11-15T11:33:12;7.13;;;4.95;;
69083;SDS011;56185;48.526;9.044;2022-11-15T11:38:50;7.72;;;5.35;;
69083;SDS011;56185;48.526;9.044;2022-11-15T11:45:12;6.32;;;4.75;;
69083;SDS011;56185;48.526;9.044;2022-11-15T11:47:10;8.00;;;4.95;;
69083;SDS011;56185;48.526;9.044;2022-11-15T11:57:29;9.57;;;4.65;;
69083;SDS011;56185;48.526;9.044;2022-11-15T12:00:23;7.25;;;4.28;;
69083;SDS011;56185;48.526;9.044;2022-11-15T12:05:38;7.85;;;4.55;;
69083;SDS011;56185;48.526;9.044;2022-11-15T12:11:03;6.57;;;4.55;;
69083;SDS011;56185;48.526;9.044;2022-11-15T12:13:50;7.80;;;4.85;;
69083;SDS011;56185;48.526;9.044;2022-11-15T12:16:22;7.80;;;5.32;;
69083;SDS011;56185;48.526;9.044;2022-11-15T12:18:53;8.90;;;5.07;;
69083;SDS011;56185;48.526;9.044;2022-11-15T12:21:27;7.68;;;5.13;;
69083;SDS011;56185;48.526;9.044;2022-11-15T12:24:21;9.50;;;5.70;;
69083;SDS011;56185;48.526;9.044;2022-11-15T12:29:50;8.93;;;5.80;;
69083;SDS011;56185;48.526;9.044;2022-11-15T12:32:27;8.15;;;5.68;;
69083;SDS011;56185;48.526;9.044;2022-11-15T12:34:55;7.68;;;5.63;;
69083;SDS011;56185;48.526;9.044;2022-11-15T12:44:58;7.73;;;4.83;;
69083;SDS011;56185;48.526;9.044;2022-11-15T12:47:24;10.55;;;4.60;;
69083;SDS011;56185;48.526;9.044;2022-11-15T12:49:51;11.65;;;4.72;;
69083;SDS011;56185;48.526;9.044;2022-11-15T12:52:17;7.18;;;4.80;;
69083;SDS011;56185;48.526;9.044;2022-11-15T13:02:22;10.90;;;5.38;;
69083;SDS011;56185;48.526;9.044;2022-11-15T13:04:50;9.93;;;4.38;;
69083;SDS011;56185;48.526;9.044;2022-11-15T13:10:00;7.63;;;3.92;;
69083;SDS011;56185;48.526;9.044;2022-11-15T13:17:33;11.10;;;4.30;;
69083;SDS011;56185;48.526;9.044;2022-11-15T13:22:39;7.20;;;3.70;;
69083;SDS011;56185;48.526;9.044;2022-11-15T13:30:41;7.88;;;3.70;;
69083;SDS011;56185;48.526;9.044;2022-11-15T13:33:36;6.53;;;4.18;;
69083;SDS011;56185;48.526;9.044;2022-11-15T13:36:23;8.93;;;4.30;;
69083;SDS011;56185;48.526;9.044;2022-11-15T13:41:59;7.75;;;4.40;;
69083;SDS011;56185;48.526;9.044;2022-11-15T13:49:52;7.05;;;4.40;;
69083;SDS011;56185;48.526;9.044;2022-11-15T13:52:18;9.38;;;4.05;;
69083;SDS011;56185;48.526;9.044;2022-11-15T13:54:46;9.43;;;4.38;;
69083;SDS011;56185;48.526;9.044;2022-11-15T13:57:20;8.18;;;4.82;;
69083;SDS011;56185;48.526;9.044;2022-11-15T13:59:51;11.23;;;5.18;;
69083;SDS011;56185;48.526;9.044;2022-11-15T14:02:21;7.40;;;5.07;;
69083;SDS011;56185;48.526;9.044;2022-11-15T14:04:52;10.48;;;5.05;;
69083;SDS011;56185;48.526;9.044;2022-11-15T14:07:21;9.35;;;5.13;;
69083;SDS011;56185;48.526;9.044;2022-11-15T14:09:49;6.68;;;4.32;;
69083;SDS011;56185;48.526;9.044;2022-11-15T14:12:33;6.97;;;4.47;;
69083;SDS011;56185;48.526;9.044;2022-11-15T14:18:00;8.05;;;3.88;;
69083;SDS011;56185;48.526;9.044;2022-11-15T14:22:54;6.57;;;3.87;;
69083;SDS011;56185;48.526;9.044;2022-11-15T14:25:22;6.72;;;3.60;;
69083;SDS011;56185;48.526;9.044;2022-11-15T14:30:32;5.65;;;3.90;;
69083;SDS011;56185;48.526;9.044;2022-11-15T14:32:58;5.80;;;3.60;;
69083;SDS011;56185;48.526;9.044;2022-11-15T14:35:23;7.95;;;3.88;;
69083;SDS011;56185;48.526;9.044;2022-11-15T14:37:49;6.47;;;3.53;;
69083;SDS011;56185;48.526;9.044;2022-11-15T14:40:16;5.57;;;3.70;;
69083;SDS011;56185;48.526;9.044;2022-11-15T14:42:46;5.97;;;3.80;;
69083;SDS011;56185;48.526;9.044;2022-11-15T14:45:14;6.93;;;3.53;;
69083;SDS011;56185;48.526;9.044;2022-11-15T14:47:41;6.43;;;3.90;;
69083;SDS011;56185;48.526;9.044;2022-11-15T14:50:11;6.88;;;4.28;;
69083;SDS011;56185;48.526;9.044;2022-11-15T14:52:41;10.02;;;4.25;;
69083;SDS011;56185;48.526;9.044;2022-11-15T14:55:25;8.65;;;4.18;;
69083;SDS011;56185;48.526;9.044;2022-11-15T14:57:53;8.70;;;4.53;;
69083;SDS011;56185;48.526;9.044;2022-11-15T15:00:19;8.75;;;4.25;;
69083;SDS011;56185;48.526;9.044;2022-11-15T15:02:46;9.20;;;5.25;;
69083;SDS011;56185;48.526;9.044;2022-11-15T15:05:20;6.43;;;4.45;;
69083;SDS011;56185;48.526;9.044;2022-11-15T15:07:46;7.88;;;4.70;;
69083;SDS011;56185;48.526;9.044;2022-11-15T15:10:13;6.90;;;4.38;;
69083;SDS011;56185;48.526;9.044;2022-11-15T15:12:39;7.10;;;4.82;;
69083;SDS011;56185;48.526;9.044;2022-11-15T15:15:04;8.48;;;4.30;;
69083;SDS011;56185;48.526;9.044;2022-11-15T15:17:30;6.43;;;4.50;;
69083;SDS011;56185;48.526;9.044;2022-11-15T15:19:56;8.60;;;4.60;;
69083;SDS011;56185;48.526;9.044;2022-11-15T15:22:21;7.83;;;5.00;;
69083;SDS011;56185;48.526;9.044;2022-11-15T15:24:46;9.43;;;5.03;;
69083;SDS011;56185;48.526;9.044;2022-11-15T15:27:11;9.75;;;4.60;;
69083;SDS011;56185;48.526;9.044;2022-11-15T15:29:37;8.05;;;4.55;;
69083;SDS011;56185;48.526;9.044;2022-11-15T15:32:03;6.68;;;4.72;;
69083;SDS011;56185;48.526;9.044;2022-11-15T15:34:28;7.55;;;5.03;;
69083;SDS011;56185;48.526;9.044;2022-11-15T15:37:06;7.30;;;4.27;;
69083;SDS011;56185;48.526;9.044;2022-11-15T15:39:51;8.88;;;4.65;;
69083;SDS011;56185;48.526;9.044;2022-11-15T15:42:18;8.07;;;4.65;;
69083;SDS011;56185;48.526;9.044;2022-11-15T15:44:44;8.88;;;4.70;;
69083;SDS011;56185;48.526;9.044;2022-11-15T15:47:11;6.33;;;4.40;;
69083;SDS011;56185;48.526;9.044;2022-11-15T15:49:38;8.95;;;4.53;;
69083;SDS011;56185;48.526;9.044;2022-11-15T15:52:03;8.07;;;4.85;;
69083;SDS011;56185;48.526;9.044;2022-11-15T15:54:28;8.73;;;5.57;;
69083;SDS011;56185;48.526;9.044;2022-11-15T15:56:54;9.33;;;5.10;;
69083;SDS011;56185;48.526;9.044;2022-11-15T15:59:19;6.53;;;4.35;;
69083;SDS011;56185;48.526;9.044;2022-11-15T16:01:45;7.20;;;4.60;;
69083;SDS011;56185;48.526;9.044;2022-11-15T16:04:10;9.03;;;4.00;;
69083;SDS011;56185;48.526;9.044;2022-11-15T16:06:36;8.70;;;4.33;;
69083;SDS011;56185;48.526;9.044;2022-11-15T16:09:03;5.78;;;3.95;;
69083;SDS011;56185;48.526;9.044;2022-11-15T16:11:29;5.40;;;3.80;;
69083;SDS011;56185;48.526;9.044;2022-11-15T16:13:54;7.83;;;4.40;;
69083;SDS011;56185;48.526;9.044;2022-11-15T16:16:19;7.80;;;4.43;;
69083;SDS011;56185;48.526;9.044;2022-11-15T16:18:46;7.95;;;4.40;;
69083;SDS011;56185;48.526;9.044;2022-11-15T16:21:11;8.13;;;4.70;;
69083;SDS011;56185;48.526;9.044;2022-11-15T16:23:36;7.60;;;4.77;;
69083;SDS011;56185;48.526;9.044;2022-11-15T16:26:02;8.95;;;4.70;;
69083;SDS011;56185;48.526;9.044;2022-11-15T16:28:32;8.45;;;4.82;;
69083;SDS011;56185;48.526;9.044;2022-11-15T16:33:26;8.20;;;5.22;;
69083;SDS011;56185;48.526;9.044;2022-11-15T16:35:52;10.85;;;4.78;;
69083;SDS011;56185;48.526;9.044;2022-11-15T16:38:17;11.60;;;5.47;;
69083;SDS011;56185;48.526;9.044;2022-11-15T16:40:42;9.07;;;5.28;;
69083;SDS011;56185;48.526;9.044;2022-11-15T16:43:08;9.35;;;5.13;;
69083;SDS011;56185;48.526;9.044;2022-11-15T16:45:36;8.60;;;5.13;;
69083;SDS011;56185;48.526;9.044;2022-11-15T16:48:02;7.88;;;4.72;;
69083;SDS011;56185;48.526;9.044;2022-11-15T16:50:29;7.72;;;4.38;;
69083;SDS011;56185;48.526;9.044;2022-11-15T16:52:57;18.63;;;9.23;;
69083;SDS011;56185;48.526;9.044;2022-11-15T16:55:24;11.75;;;7.38;;
69083;SDS011;56185;48.526;9.044;2022-11-15T16:57:51;10.20;;;6.78;;
69083;SDS011;56185;48.526;9.044;2022-11-15T17:00:17;12.43;;;7.03;;
69083;SDS011;56185;48.526;9.044;2022-11-15T17:02:47;9.73;;;6.15;;
69083;SDS011;56185;48.526;9.044;2022-11-15T17:05:14;9.70;;;5.75;;